sensor_id;sensor_type;location;lat;lon;timestamp;P1;P2;P0
57289;PMS5003;43523;53.022;-1.178;2023-03-17T00:01:01;23;20;
57289;PMS5003;43523;53.022;-1.178;2023-03-17T00:02:04;21;20;
57289;PMS5003;43523;53.022;-1.178;2023-03-17T00:03:08;22;18;
57289;PMS5003;43523;53.022;-1.178;2023-03-17T00:04:17;24;19;
57289;PMS5003;43523;53.022;-1.178;2023-03-17T00:05:21;26;23;
57289;PMS5003;43523;53.022;-1.178;2023-03-17T00:06:25;25;23;
57289;PMS5003;43523;53.022;-1.178;2023-03-17T00:07:29;24;18;
57289;PMS5003;43523;53.022;-1.178;2023-03-17T00:08:32;20;19;
57289;PMS5003;43523;53.022;-1.178;2023-03-17T00:09:36;20;18;
57289;PMS5003;43523;53.022;-1.178;2023-03-17T00:10:38;19;19;
57289;PMS5003;43523;53.022;-1.178;2023-03-17T00:11:40;23;20;
57289;PMS5003;43523;53.022;-1.178;2023-03-17T00:12:44;23;22;
57289;PMS5003;43523;53.022;-1.178;2023-03-17T00:13:46;22;19;
57289;PMS5003;43523;53.022;-1.178;2023-03-17T00:14:49;24;22;
57289;PMS5003;43523;53.022;-1.178;2023-03-17T00:15:52;29;22;
57289;PMS5003;43523;53.022;-1.178;2023-03-17T00:16:57;24;21;
57289;PMS5003;43523;53.022;-1.178;2023-03-17T00:17:59;22;19;
57289;PMS5003;43523;53.022;-1.178;2023-03-17T00:19:02;26;24;
57289;PMS5003;43523;53.022;-1.178;2023-03-17T00:20:06;22;21;
57289;PMS5003;43523;53.022;-1.178;2023-03-17T00:20:13;22;21;
57289;PMS5003;43523;53.022;-1.178;2023-03-17T00:21:24;20;20;
57289;PMS5003;43523;53.022;-1.178;2023-03-17T00:22:29;25;22;
57289;PMS5003;43523;53.022;-1.178;2023-03-17T00:23:31;23;20;
57289;PMS5003;43523;53.022;-1.178;2023-03-17T00:24:34;22;20;
57289;PMS5003;43523;53.022;-1.178;2023-03-17T00:25:36;25;22;
57289;PMS5003;43523;53.022;-1.178;2023-03-17T00:26:39;22;19;
57289;PMS5003;43523;53.022;-1.178;2023-03-17T00:27:41;27;25;
57289;PMS5003;43523;53.022;-1.178;2023-03-17T00:28:43;30;26;
57289;PMS5003;43523;53.022;-1.178;2023-03-17T00:29:46;24;21;
57289;PMS5003;43523;53.022;-1.178;2023-03-17T00:30:49;23;23;
57289;PMS5003;43523;53.022;-1.178;2023-03-17T00:31:55;24;21;
57289;PMS5003;43523;53.022;-1.178;2023-03-17T00:32:58;23;20;
57289;PMS5003;43523;53.022;-1.178;2023-03-17T00:34:01;23;21;
57289;PMS5003;43523;53.022;-1.178;2023-03-17T00:35:04;22;19;
57289;PMS5003;43523;53.022;-1.178;2023-03-17T00:36:15;25;22;
57289;PMS5003;43523;53.022;-1.178;2023-03-17T00:37:20;23;20;
57289;PMS5003;43523;53.022;-1.178;2023-03-17T00:38:23;27;22;
57289;PMS5003;43523;53.022;-1.178;2023-03-17T00:39:25;28;22;
57289;PMS5003;43523;53.022;-1.178;2023-03-17T00:40:28;26;23;
57289;PMS5003;43523;53.022;-1.178;2023-03-17T00:41:32;24;20;
57289;PMS5003;43523;53.022;-1.178;2023-03-17T00:42:35;27;23;
57289;PMS5003;43523;53.022;-1.178;2023-03-17T00:43:38;22;22;
57289;PMS5003;43523;53.022;-1.178;2023-03-17T00:44:40;24;21;
57289;PMS5003;43523;53.022;-1.178;2023-03-17T00:45:43;19;18;
57289;PMS5003;43523;53.022;-1.178;2023-03-17T00:46:46;21;18;
57289;PMS5003;43523;53.022;-1.178;2023-03-17T00:47:49;22;19;
57289;PMS5003;43523;53.022;-1.178;2023-03-17T00:48:53;19;18;
57289;PMS5003;43523;53.022;-1.178;2023-03-17T00:49:55;23;19;
57289;PMS5003;43523;53.022;-1.178;2023-03-17T00:50:58;22;19;
57289;PMS5003;43523;53.022;-1.178;2023-03-17T00:52:01;24;23;
57289;PMS5003;43523;53.022;-1.178;2023-03-17T00:53:05;31;21;
57289;PMS5003;43523;53.022;-1.178;2023-03-17T00:54:11;17;17;
57289;PMS5003;43523;53.022;-1.178;2023-03-17T00:55:16;26;23;
57289;PMS5003;43523;53.022;-1.178;2023-03-17T00:56:20;19;18;
57289;PMS5003;43523;53.022;-1.178;2023-03-17T00:57:22;21;21;
57289;PMS5003;43523;53.022;-1.178;2023-03-17T00:58:25;24;22;
57289;PMS5003;43523;53.022;-1.178;2023-03-17T00:59:29;19;18;
57289;PMS5003;43523;53.022;-1.178;2023-03-17T01:00:37;24;21;
57289;PMS5003;43523;53.022;-1.178;2023-03-17T01:01:39;20;20;
57289;PMS5003;43523;53.022;-1.178;2023-03-17T01:02:44;24;23;
57289;PMS5003;43523;53.022;-1.178;2023-03-17T01:03:47;21;19;
57289;PMS5003;43523;53.022;-1.178;2023-03-17T01:04:50;26;23;
57289;PMS5003;43523;53.022;-1.178;2023-03-17T01:05:53;20;19;
57289;PMS5003;43523;53.022;-1.178;2023-03-17T01:06:56;20;19;
57289;PMS5003;43523;53.022;-1.178;2023-03-17T01:07:59;23;20;
57289;PMS5003;43523;53.022;-1.178;2023-03-17T01:09:01;22;22;
57289;PMS5003;43523;53.022;-1.178;2023-03-17T01:10:09;25;24;
57289;PMS5003;43523;53.022;-1.178;2023-03-17T01:11:14;19;18;
57289;PMS5003;43523;53.022;-1.178;2023-03-17T01:12:18;25;20;
57289;PMS5003;43523;53.022;-1.178;2023-03-17T01:13:21;20;19;
57289;PMS5003;43523;53.022;-1.178;2023-03-17T01:14:24;25;25;
57289;PMS5003;43523;53.022;-1.178;2023-03-17T01:15:28;28;23;
57289;PMS5003;43523;53.022;-1.178;2023-03-17T01:16:31;21;19;
57289;PMS5003;43523;53.022;-1.178;2023-03-17T01:17:33;18;18;
57289;PMS5003;43523;53.022;-1.178;2023-03-17T01:18:36;24;19;
57289;PMS5003;43523;53.022;-1.178;2023-03-17T01:19:38;22;21;
57289;PMS5003;43523;53.022;-1.178;2023-03-17T01:20:40;28;23;
57289;PMS5003;43523;53.022;-1.178;2023-03-17T01:21:45;24;21;
57289;PMS5003;43523;53.022;-1.178;2023-03-17T01:22:47;18;14;
57289;PMS5003;43523;53.022;-1.178;2023-03-17T01:23:50;20;20;
57289;PMS5003;43523;53.022;-1.178;2023-03-17T01:24:53;29;22;
57289;PMS5003;43523;53.022;-1.178;2023-03-17T01:25:55;23;21;
57289;PMS5003;43523;53.022;-1.178;2023-03-17T01:26:58;25;23;
57289;PMS5003;43523;53.022;-1.178;2023-03-17T01:28:01;28;22;
57289;PMS5003;43523;53.022;-1.178;2023-03-17T01:29:04;22;20;
57289;PMS5003;43523;53.022;-1.178;2023-03-17T01:30:11;18;17;
57289;PMS5003;43523;53.022;-1.178;2023-03-17T01:31:23;29;24;
57289;PMS5003;43523;53.022;-1.178;2023-03-17T01:32:25;20;17;
57289;PMS5003;43523;53.022;-1.178;2023-03-17T01:33:27;21;20;
57289;PMS5003;43523;53.022;-1.178;2023-03-17T01:34:30;19;18;
57289;PMS5003;43523;53.022;-1.178;2023-03-17T01:35:32;23;21;
57289;PMS5003;43523;53.022;-1.178;2023-03-17T01:36:36;24;21;
57289;PMS5003;43523;53.022;-1.178;2023-03-17T01:37:38;20;20;
57289;PMS5003;43523;53.022;-1.178;2023-03-17T01:38:40;20;18;
57289;PMS5003;43523;53.022;-1.178;2023-03-17T01:39:43;22;22;
57289;PMS5003;43523;53.022;-1.178;2023-03-17T01:40:47;25;24;
57289;PMS5003;43523;53.022;-1.178;2023-03-17T01:41:51;22;18;
57289;PMS5003;43523;53.022;-1.178;2023-03-17T01:42:57;22;21;
57289;PMS5003;43523;53.022;-1.178;2023-03-17T01:44:03;22;19;
57289;PMS5003;43523;53.022;-1.178;2023-03-17T01:45:07;20;16;
57289;PMS5003;43523;53.022;-1.178;2023-03-17T01:47:14;21;18;
57289;PMS5003;43523;53.022;-1.178;2023-03-17T01:48:17;26;23;
57289;PMS5003;43523;53.022;-1.178;2023-03-17T01:49:23;19;17;
57289;PMS5003;43523;53.022;-1.178;2023-03-17T01:50:28;21;20;
57289;PMS5003;43523;53.022;-1.178;2023-03-17T01:51:33;22;19;
57289;PMS5003;43523;53.022;-1.178;2023-03-17T01:52:39;23;20;
57289;PMS5003;43523;53.022;-1.178;2023-03-17T01:53:47;20;17;
57289;PMS5003;43523;53.022;-1.178;2023-03-17T01:54:52;21;20;
57289;PMS5003;43523;53.022;-1.178;2023-03-17T01:55:57;20;19;
57289;PMS5003;43523;53.022;-1.178;2023-03-17T01:57:02;20;17;
57289;PMS5003;43523;53.022;-1.178;2023-03-17T01:58:12;21;18;
57289;PMS5003;43523;53.022;-1.178;2023-03-17T01:59:18;23;20;
57289;PMS5003;43523;53.022;-1.178;2023-03-17T02:00:24;19;18;
57289;PMS5003;43523;53.022;-1.178;2023-03-17T02:01:27;19;19;
57289;PMS5003;43523;53.022;-1.178;2023-03-17T02:02:36;21;19;
57289;PMS5003;43523;53.022;-1.178;2023-03-17T02:03:40;22;19;
57289;PMS5003;43523;53.022;-1.178;2023-03-17T02:04:43;22;21;
57289;PMS5003;43523;53.022;-1.178;2023-03-17T02:05:46;20;18;
57289;PMS5003;43523;53.022;-1.178;2023-03-17T02:06:51;20;17;
57289;PMS5003;43523;53.022;-1.178;2023-03-17T02:07:55;22;19;
57289;PMS5003;43523;53.022;-1.178;2023-03-17T02:08:57;23;22;
57289;PMS5003;43523;53.022;-1.178;2023-03-17T02:10:00;17;17;
57289;PMS5003;43523;53.022;-1.178;2023-03-17T02:11:05;16;16;
57289;PMS5003;43523;53.022;-1.178;2023-03-17T02:12:08;21;20;
57289;PMS5003;43523;53.022;-1.178;2023-03-17T02:13:11;24;21;
57289;PMS5003;43523;53.022;-1.178;2023-03-17T02:14:14;20;18;
57289;PMS5003;43523;53.022;-1.178;2023-03-17T02:15:17;19;16;
57289;PMS5003;43523;53.022;-1.178;2023-03-17T02:16:20;21;18;
57289;PMS5003;43523;53.022;-1.178;2023-03-17T02:17:23;20;18;
57289;PMS5003;43523;53.022;-1.178;2023-03-17T02:18:27;23;21;
57289;PMS5003;43523;53.022;-1.178;2023-03-17T02:19:29;18;17;
57289;PMS5003;43523;53.022;-1.178;2023-03-17T02:21:45;22;20;
57289;PMS5003;43523;53.022;-1.178;2023-03-17T02:21:49;22;20;
57289;PMS5003;43523;53.022;-1.178;2023-03-17T02:22:53;18;17;
57289;PMS5003;43523;53.022;-1.178;2023-03-17T02:23:56;17;17;
57289;PMS5003;43523;53.022;-1.178;2023-03-17T02:25:01;19;18;
57289;PMS5003;43523;53.022;-1.178;2023-03-17T02:26:04;17;16;
57289;PMS5003;43523;53.022;-1.178;2023-03-17T02:27:09;19;17;
57289;PMS5003;43523;53.022;-1.178;2023-03-17T02:28:15;17;14;
57289;PMS5003;43523;53.022;-1.178;2023-03-17T02:29:22;16;16;
57289;PMS5003;43523;53.022;-1.178;2023-03-17T02:30:31;17;14;
57289;PMS5003;43523;53.022;-1.178;2023-03-17T02:31:36;18;15;
57289;PMS5003;43523;53.022;-1.178;2023-03-17T02:32:38;18;17;
57289;PMS5003;43523;53.022;-1.178;2023-03-17T02:33:40;14;13;
57289;PMS5003;43523;53.022;-1.178;2023-03-17T02:34:43;18;17;
57289;PMS5003;43523;53.022;-1.178;2023-03-17T02:35:46;11;11;
57289;PMS5003;43523;53.022;-1.178;2023-03-17T02:36:49;14;13;
57289;PMS5003;43523;53.022;-1.178;2023-03-17T02:37:51;14;13;
57289;PMS5003;43523;53.022;-1.178;2023-03-17T02:38:54;15;12;
57289;PMS5003;43523;53.022;-1.178;2023-03-17T02:39:57;15;14;
57289;PMS5003;43523;53.022;-1.178;2023-03-17T02:40:59;16;16;
57289;PMS5003;43523;53.022;-1.178;2023-03-17T02:42:02;12;12;
57289;PMS5003;43523;53.022;-1.178;2023-03-17T02:43:05;19;15;
57289;PMS5003;43523;53.022;-1.178;2023-03-17T02:44:07;17;16;
57289;PMS5003;43523;53.022;-1.178;2023-03-17T02:45:10;15;15;
57289;PMS5003;43523;53.022;-1.178;2023-03-17T02:46:13;16;11;
57289;PMS5003;43523;53.022;-1.178;2023-03-17T02:47:15;15;13;
57289;PMS5003;43523;53.022;-1.178;2023-03-17T02:48:18;13;12;
57289;PMS5003;43523;53.022;-1.178;2023-03-17T02:49:21;14;13;
57289;PMS5003;43523;53.022;-1.178;2023-03-17T02:50:24;11;11;
57289;PMS5003;43523;53.022;-1.178;2023-03-17T02:51:28;16;11;
57289;PMS5003;43523;53.022;-1.178;2023-03-17T02:52:31;15;12;
57289;PMS5003;43523;53.022;-1.178;2023-03-17T02:53:33;15;13;
57289;PMS5003;43523;53.022;-1.178;2023-03-17T02:54:36;15;13;
57289;PMS5003;43523;53.022;-1.178;2023-03-17T02:55:39;16;12;
57289;PMS5003;43523;53.022;-1.178;2023-03-17T02:56:42;16;15;
57289;PMS5003;43523;53.022;-1.178;2023-03-17T02:57:45;12;11;
57289;PMS5003;43523;53.022;-1.178;2023-03-17T02:58:47;11;10;
57289;PMS5003;43523;53.022;-1.178;2023-03-17T02:59:50;15;15;
57289;PMS5003;43523;53.022;-1.178;2023-03-17T03:00:52;9;7;
57289;PMS5003;43523;53.022;-1.178;2023-03-17T03:01:54;11;10;
57289;PMS5003;43523;53.022;-1.178;2023-03-17T03:02:56;14;12;
57289;PMS5003;43523;53.022;-1.178;2023-03-17T03:03:59;15;13;
57289;PMS5003;43523;53.022;-1.178;2023-03-17T03:05:01;14;11;
57289;PMS5003;43523;53.022;-1.178;2023-03-17T03:06:05;13;11;
57289;PMS5003;43523;53.022;-1.178;2023-03-17T03:07:07;13;10;
57289;PMS5003;43523;53.022;-1.178;2023-03-17T03:08:10;15;12;
57289;PMS5003;43523;53.022;-1.178;2023-03-17T03:09:13;13;13;
57289;PMS5003;43523;53.022;-1.178;2023-03-17T03:10:16;12;12;
57289;PMS5003;43523;53.022;-1.178;2023-03-17T03:11:20;11;10;
57289;PMS5003;43523;53.022;-1.178;2023-03-17T03:12:22;13;12;
57289;PMS5003;43523;53.022;-1.178;2023-03-17T03:13:25;17;10;
57289;PMS5003;43523;53.022;-1.178;2023-03-17T03:14:28;11;10;
57289;PMS5003;43523;53.022;-1.178;2023-03-17T03:15:31;10;10;
57289;PMS5003;43523;53.022;-1.178;2023-03-17T03:16:33;17;13;
57289;PMS5003;43523;53.022;-1.178;2023-03-17T03:17:41;14;12;
57289;PMS5003;43523;53.022;-1.178;2023-03-17T03:18:45;12;12;
57289;PMS5003;43523;53.022;-1.178;2023-03-17T03:19:47;12;12;
57289;PMS5003;43523;53.022;-1.178;2023-03-17T03:20:50;13;12;
57289;PMS5003;43523;53.022;-1.178;2023-03-17T03:21:52;15;13;
57289;PMS5003;43523;53.022;-1.178;2023-03-17T03:22:55;15;15;
57289;PMS5003;43523;53.022;-1.178;2023-03-17T03:23:57;15;12;
57289;PMS5003;43523;53.022;-1.178;2023-03-17T03:24:59;14;10;
57289;PMS5003;43523;53.022;-1.178;2023-03-17T03:26:02;13;12;
57289;PMS5003;43523;53.022;-1.178;2023-03-17T03:27:04;13;13;
57289;PMS5003;43523;53.022;-1.178;2023-03-17T03:28:06;13;12;
57289;PMS5003;43523;53.022;-1.178;2023-03-17T03:29:09;12;11;
57289;PMS5003;43523;53.022;-1.178;2023-03-17T03:30:12;14;12;
57289;PMS5003;43523;53.022;-1.178;2023-03-17T03:31:14;13;13;
57289;PMS5003;43523;53.022;-1.178;2023-03-17T03:32:17;13;12;
57289;PMS5003;43523;53.022;-1.178;2023-03-17T03:33:19;11;9;
57289;PMS5003;43523;53.022;-1.178;2023-03-17T03:34:21;11;10;
57289;PMS5003;43523;53.022;-1.178;2023-03-17T03:35:24;16;13;
57289;PMS5003;43523;53.022;-1.178;2023-03-17T03:36:26;10;10;
57289;PMS5003;43523;53.022;-1.178;2023-03-17T03:37:29;13;11;
57289;PMS5003;43523;53.022;-1.178;2023-03-17T03:38:32;13;12;
57289;PMS5003;43523;53.022;-1.178;2023-03-17T03:39:35;12;12;
57289;PMS5003;43523;53.022;-1.178;2023-03-17T03:40:38;17;14;
57289;PMS5003;43523;53.022;-1.178;2023-03-17T03:41:41;19;13;
57289;PMS5003;43523;53.022;-1.178;2023-03-17T03:42:45;13;10;
57289;PMS5003;43523;53.022;-1.178;2023-03-17T03:43:47;14;11;
57289;PMS5003;43523;53.022;-1.178;2023-03-17T03:44:49;19;13;
57289;PMS5003;43523;53.022;-1.178;2023-03-17T03:45:52;14;14;
57289;PMS5003;43523;53.022;-1.178;2023-03-17T03:46:54;11;11;
57289;PMS5003;43523;53.022;-1.178;2023-03-17T03:47:57;17;15;
57289;PMS5003;43523;53.022;-1.178;2023-03-17T03:48:59;14;14;
57289;PMS5003;43523;53.022;-1.178;2023-03-17T03:50:01;15;11;
57289;PMS5003;43523;53.022;-1.178;2023-03-17T03:51:04;16;15;
57289;PMS5003;43523;53.022;-1.178;2023-03-17T03:52:06;15;13;
57289;PMS5003;43523;53.022;-1.178;2023-03-17T03:53:08;13;12;
57289;PMS5003;43523;53.022;-1.178;2023-03-17T03:54:10;13;10;
57289;PMS5003;43523;53.022;-1.178;2023-03-17T03:55:13;12;12;
57289;PMS5003;43523;53.022;-1.178;2023-03-17T03:56:15;15;13;
57289;PMS5003;43523;53.022;-1.178;2023-03-17T03:57:17;14;14;
57289;PMS5003;43523;53.022;-1.178;2023-03-17T03:58:20;12;12;
57289;PMS5003;43523;53.022;-1.178;2023-03-17T03:59:23;16;16;
57289;PMS5003;43523;53.022;-1.178;2023-03-17T04:00:25;13;13;
57289;PMS5003;43523;53.022;-1.178;2023-03-17T04:01:28;16;15;
57289;PMS5003;43523;53.022;-1.178;2023-03-17T04:02:30;16;13;
57289;PMS5003;43523;53.022;-1.178;2023-03-17T04:03:32;17;14;
57289;PMS5003;43523;53.022;-1.178;2023-03-17T04:04:40;16;14;
57289;PMS5003;43523;53.022;-1.178;2023-03-17T04:05:47;17;15;
57289;PMS5003;43523;53.022;-1.178;2023-03-17T04:06:50;15;14;
57289;PMS5003;43523;53.022;-1.178;2023-03-17T04:07:52;15;15;
57289;PMS5003;43523;53.022;-1.178;2023-03-17T04:08:54;17;15;
57289;PMS5003;43523;53.022;-1.178;2023-03-17T04:09:56;17;15;
57289;PMS5003;43523;53.022;-1.178;2023-03-17T04:10:59;17;14;
57289;PMS5003;43523;53.022;-1.178;2023-03-17T04:12:01;23;22;
57289;PMS5003;43523;53.022;-1.178;2023-03-17T04:13:03;15;15;
57289;PMS5003;43523;53.022;-1.178;2023-03-17T04:14:06;14;14;
57289;PMS5003;43523;53.022;-1.178;2023-03-17T04:15:09;13;13;
57289;PMS5003;43523;53.022;-1.178;2023-03-17T04:16:14;16;13;
57289;PMS5003;43523;53.022;-1.178;2023-03-17T04:17:16;13;12;
57289;PMS5003;43523;53.022;-1.178;2023-03-17T04:18:19;13;13;
57289;PMS5003;43523;53.022;-1.178;2023-03-17T04:19:21;14;13;
57289;PMS5003;43523;53.022;-1.178;2023-03-17T04:20:23;11;11;
57289;PMS5003;43523;53.022;-1.178;2023-03-17T04:21:26;19;18;
57289;PMS5003;43523;53.022;-1.178;2023-03-17T04:22:28;18;14;
57289;PMS5003;43523;53.022;-1.178;2023-03-17T04:23:30;14;13;
57289;PMS5003;43523;53.022;-1.178;2023-03-17T04:24:33;18;17;
57289;PMS5003;43523;53.022;-1.178;2023-03-17T04:25:36;16;11;
57289;PMS5003;43523;53.022;-1.178;2023-03-17T04:26:38;15;15;
57289;PMS5003;43523;53.022;-1.178;2023-03-17T04:27:41;16;16;
57289;PMS5003;43523;53.022;-1.178;2023-03-17T04:28:45;15;13;
57289;PMS5003;43523;53.022;-1.178;2023-03-17T04:29:47;16;13;
57289;PMS5003;43523;53.022;-1.178;2023-03-17T04:30:49;12;12;
57289;PMS5003;43523;53.022;-1.178;2023-03-17T04:31:52;12;12;
57289;PMS5003;43523;53.022;-1.178;2023-03-17T04:32:54;17;15;
57289;PMS5003;43523;53.022;-1.178;2023-03-17T04:33:56;14;14;
57289;PMS5003;43523;53.022;-1.178;2023-03-17T04:34:58;15;13;
57289;PMS5003;43523;53.022;-1.178;2023-03-17T04:36:01;18;13;
57289;PMS5003;43523;53.022;-1.178;2023-03-17T04:37:03;12;11;
57289;PMS5003;43523;53.022;-1.178;2023-03-17T04:38:05;19;12;
57289;PMS5003;43523;53.022;-1.178;2023-03-17T04:39:09;12;11;
57289;PMS5003;43523;53.022;-1.178;2023-03-17T04:40:12;16;12;
57289;PMS5003;43523;53.022;-1.178;2023-03-17T04:41:16;13;12;
57289;PMS5003;43523;53.022;-1.178;2023-03-17T04:42:19;15;15;
57289;PMS5003;43523;53.022;-1.178;2023-03-17T04:43:26;19;17;
57289;PMS5003;43523;53.022;-1.178;2023-03-17T04:44:28;14;10;
57289;PMS5003;43523;53.022;-1.178;2023-03-17T04:45:30;12;11;
57289;PMS5003;43523;53.022;-1.178;2023-03-17T04:46:33;16;13;
57289;PMS5003;43523;53.022;-1.178;2023-03-17T04:47:36;14;14;
57289;PMS5003;43523;53.022;-1.178;2023-03-17T04:48:39;14;12;
57289;PMS5003;43523;53.022;-1.178;2023-03-17T04:49:41;16;15;
57289;PMS5003;43523;53.022;-1.178;2023-03-17T04:50:45;11;11;
57289;PMS5003;43523;53.022;-1.178;2023-03-17T04:51:48;20;18;
57289;PMS5003;43523;53.022;-1.178;2023-03-17T04:52:50;16;13;
57289;PMS5003;43523;53.022;-1.178;2023-03-17T04:53:52;15;15;
57289;PMS5003;43523;53.022;-1.178;2023-03-17T04:54:55;18;15;
57289;PMS5003;43523;53.022;-1.178;2023-03-17T04:55:57;18;16;
57289;PMS5003;43523;53.022;-1.178;2023-03-17T04:57:00;18;16;
57289;PMS5003;43523;53.022;-1.178;2023-03-17T04:58:02;18;17;
57289;PMS5003;43523;53.022;-1.178;2023-03-17T04:59:05;19;18;
57289;PMS5003;43523;53.022;-1.178;2023-03-17T05:00:08;19;17;
57289;PMS5003;43523;53.022;-1.178;2023-03-17T05:01:12;20;17;
57289;PMS5003;43523;53.022;-1.178;2023-03-17T05:02:14;16;15;
57289;PMS5003;43523;53.022;-1.178;2023-03-17T05:03:17;13;13;
57289;PMS5003;43523;53.022;-1.178;2023-03-17T05:04:19;17;14;
57289;PMS5003;43523;53.022;-1.178;2023-03-17T05:05:21;16;14;
57289;PMS5003;43523;53.022;-1.178;2023-03-17T05:06:24;21;17;
57289;PMS5003;43523;53.022;-1.178;2023-03-17T05:07:26;14;13;
57289;PMS5003;43523;53.022;-1.178;2023-03-17T05:08:29;17;16;
57289;PMS5003;43523;53.022;-1.178;2023-03-17T05:09:32;17;14;
57289;PMS5003;43523;53.022;-1.178;2023-03-17T05:10:34;15;15;
57289;PMS5003;43523;53.022;-1.178;2023-03-17T05:11:36;16;15;
57289;PMS5003;43523;53.022;-1.178;2023-03-17T05:12:39;20;17;
57289;PMS5003;43523;53.022;-1.178;2023-03-17T05:13:41;18;16;
57289;PMS5003;43523;53.022;-1.178;2023-03-17T05:14:45;16;13;
57289;PMS5003;43523;53.022;-1.178;2023-03-17T05:15:48;13;13;
57289;PMS5003;43523;53.022;-1.178;2023-03-17T05:16:51;12;12;
57289;PMS5003;43523;53.022;-1.178;2023-03-17T05:17:53;18;14;
57289;PMS5003;43523;53.022;-1.178;2023-03-17T05:18:56;25;19;
57289;PMS5003;43523;53.022;-1.178;2023-03-17T05:19:58;20;17;
57289;PMS5003;43523;53.022;-1.178;2023-03-17T05:21:00;21;17;
57289;PMS5003;43523;53.022;-1.178;2023-03-17T05:22:02;16;13;
57289;PMS5003;43523;53.022;-1.178;2023-03-17T05:23:05;20;17;
57289;PMS5003;43523;53.022;-1.178;2023-03-17T05:24:08;14;12;
57289;PMS5003;43523;53.022;-1.178;2023-03-17T05:25:10;12;12;
57289;PMS5003;43523;53.022;-1.178;2023-03-17T05:26:13;16;13;
57289;PMS5003;43523;53.022;-1.178;2023-03-17T05:27:15;15;13;
57289;PMS5003;43523;53.022;-1.178;2023-03-17T05:28:18;18;13;
57289;PMS5003;43523;53.022;-1.178;2023-03-17T05:29:20;16;11;
57289;PMS5003;43523;53.022;-1.178;2023-03-17T05:30:23;18;13;
57289;PMS5003;43523;53.022;-1.178;2023-03-17T05:31:25;15;13;
57289;PMS5003;43523;53.022;-1.178;2023-03-17T05:32:27;17;16;
57289;PMS5003;43523;53.022;-1.178;2023-03-17T05:33:30;15;14;
57289;PMS5003;43523;53.022;-1.178;2023-03-17T05:34:32;16;15;
57289;PMS5003;43523;53.022;-1.178;2023-03-17T05:35:35;11;11;
57289;PMS5003;43523;53.022;-1.178;2023-03-17T05:36:37;13;13;
57289;PMS5003;43523;53.022;-1.178;2023-03-17T05:37:39;18;15;
57289;PMS5003;43523;53.022;-1.178;2023-03-17T05:38:43;16;14;
57289;PMS5003;43523;53.022;-1.178;2023-03-17T05:39:45;15;14;
57289;PMS5003;43523;53.022;-1.178;2023-03-17T05:40:48;12;12;
57289;PMS5003;43523;53.022;-1.178;2023-03-17T05:41:51;15;14;
57289;PMS5003;43523;53.022;-1.178;2023-03-17T05:42:53;13;11;
57289;PMS5003;43523;53.022;-1.178;2023-03-17T05:43:56;14;12;
57289;PMS5003;43523;53.022;-1.178;2023-03-17T05:44:58;14;13;
57289;PMS5003;43523;53.022;-1.178;2023-03-17T05:46:01;12;11;
57289;PMS5003;43523;53.022;-1.178;2023-03-17T05:47:03;12;12;
57289;PMS5003;43523;53.022;-1.178;2023-03-17T05:48:06;15;13;
57289;PMS5003;43523;53.022;-1.178;2023-03-17T05:49:08;17;17;
57289;PMS5003;43523;53.022;-1.178;2023-03-17T05:50:11;13;10;
57289;PMS5003;43523;53.022;-1.178;2023-03-17T05:51:13;18;16;
57289;PMS5003;43523;53.022;-1.178;2023-03-17T05:52:16;18;16;
57289;PMS5003;43523;53.022;-1.178;2023-03-17T05:53:18;17;17;
57289;PMS5003;43523;53.022;-1.178;2023-03-17T05:54:21;21;15;
57289;PMS5003;43523;53.022;-1.178;2023-03-17T05:55:24;15;15;
57289;PMS5003;43523;53.022;-1.178;2023-03-17T05:56:26;19;16;
57289;PMS5003;43523;53.022;-1.178;2023-03-17T05:57:29;17;16;
57289;PMS5003;43523;53.022;-1.178;2023-03-17T05:58:31;13;13;
57289;PMS5003;43523;53.022;-1.178;2023-03-17T05:59:34;16;13;
57289;PMS5003;43523;53.022;-1.178;2023-03-17T06:00:36;16;15;
57289;PMS5003;43523;53.022;-1.178;2023-03-17T06:01:39;15;12;
57289;PMS5003;43523;53.022;-1.178;2023-03-17T06:02:41;17;17;
57289;PMS5003;43523;53.022;-1.178;2023-03-17T06:03:45;15;15;
57289;PMS5003;43523;53.022;-1.178;2023-03-17T06:04:48;15;14;
57289;PMS5003;43523;53.022;-1.178;2023-03-17T06:05:51;15;13;
57289;PMS5003;43523;53.022;-1.178;2023-03-17T06:06:53;14;12;
57289;PMS5003;43523;53.022;-1.178;2023-03-17T06:07:55;21;18;
57289;PMS5003;43523;53.022;-1.178;2023-03-17T06:08:58;18;15;
57289;PMS5003;43523;53.022;-1.178;2023-03-17T06:10:00;15;15;
57289;PMS5003;43523;53.022;-1.178;2023-03-17T06:11:03;19;16;
57289;PMS5003;43523;53.022;-1.178;2023-03-17T06:12:06;17;15;
57289;PMS5003;43523;53.022;-1.178;2023-03-17T06:13:09;16;15;
57289;PMS5003;43523;53.022;-1.178;2023-03-17T06:14:12;21;15;
57289;PMS5003;43523;53.022;-1.178;2023-03-17T06:15:14;18;16;
57289;PMS5003;43523;53.022;-1.178;2023-03-17T06:16:17;19;17;
57289;PMS5003;43523;53.022;-1.178;2023-03-17T06:17:19;19;17;
57289;PMS5003;43523;53.022;-1.178;2023-03-17T06:18:21;20;15;
57289;PMS5003;43523;53.022;-1.178;2023-03-17T06:19:23;13;13;
57289;PMS5003;43523;53.022;-1.178;2023-03-17T06:20:26;20;16;
57289;PMS5003;43523;53.022;-1.178;2023-03-17T06:21:29;22;18;
57289;PMS5003;43523;53.022;-1.178;2023-03-17T06:22:31;20;15;
57289;PMS5003;43523;53.022;-1.178;2023-03-17T06:23:33;16;13;
57289;PMS5003;43523;53.022;-1.178;2023-03-17T06:24:36;18;18;
57289;PMS5003;43523;53.022;-1.178;2023-03-17T06:25:38;17;17;
57289;PMS5003;43523;53.022;-1.178;2023-03-17T06:26:41;18;16;
57289;PMS5003;43523;53.022;-1.178;2023-03-17T06:27:45;18;18;
57289;PMS5003;43523;53.022;-1.178;2023-03-17T06:28:47;22;22;
57289;PMS5003;43523;53.022;-1.178;2023-03-17T06:29:49;19;16;
57289;PMS5003;43523;53.022;-1.178;2023-03-17T06:30:51;18;18;
57289;PMS5003;43523;53.022;-1.178;2023-03-17T06:31:53;20;16;
57289;PMS5003;43523;53.022;-1.178;2023-03-17T06:32:56;21;19;
57289;PMS5003;43523;53.022;-1.178;2023-03-17T06:33:58;20;15;
57289;PMS5003;43523;53.022;-1.178;2023-03-17T06:35:01;22;21;
57289;PMS5003;43523;53.022;-1.178;2023-03-17T06:36:04;21;15;
57289;PMS5003;43523;53.022;-1.178;2023-03-17T06:37:06;20;16;
57289;PMS5003;43523;53.022;-1.178;2023-03-17T06:38:09;21;18;
57289;PMS5003;43523;53.022;-1.178;2023-03-17T06:39:11;23;19;
57289;PMS5003;43523;53.022;-1.178;2023-03-17T06:40:14;20;18;
57289;PMS5003;43523;53.022;-1.178;2023-03-17T06:41:16;21;19;
57289;PMS5003;43523;53.022;-1.178;2023-03-17T06:42:19;19;17;
57289;PMS5003;43523;53.022;-1.178;2023-03-17T06:43:21;26;20;
57289;PMS5003;43523;53.022;-1.178;2023-03-17T06:44:23;22;21;
57289;PMS5003;43523;53.022;-1.178;2023-03-17T06:45:26;19;16;
57289;PMS5003;43523;53.022;-1.178;2023-03-17T06:46:28;20;17;
57289;PMS5003;43523;53.022;-1.178;2023-03-17T06:47:31;18;16;
57289;PMS5003;43523;53.022;-1.178;2023-03-17T06:48:33;14;14;
57289;PMS5003;43523;53.022;-1.178;2023-03-17T06:49:36;24;22;
57289;PMS5003;43523;53.022;-1.178;2023-03-17T06:50:38;37;28;
57289;PMS5003;43523;53.022;-1.178;2023-03-17T06:51:40;19;17;
57289;PMS5003;43523;53.022;-1.178;2023-03-17T06:52:48;18;18;